Time;durP1;ratioP1;P1;durP2;ratioP2;P2;SDS_P1;SDS_P2;PMS_P1;PMS_P2;Temp;Humidity;BMP_temperature;BMP_pressure;BME280_temperature;BME280_humidity;BME280_pressure;Samples;Min_cycle;Max_cycle;Signal;HPM_P1;HPM_P2
2023/06/13 00:00:00;;;;;;;4.53;3.13;;;;;;;;;;5022020;28;20135;-74
2023/06/13 00:02:25;;;;;;;3.55;2.92;;;;;;;;;;5022036;28;20516;-72
2023/06/13 00:04:51;;;;;;;4.70;2.67;;;;;;;;;;5038967;28;20156;-73
2023/06/13 00:07:17;;;;;;;7.20;2.92;;;;;;;;;;5021262;28;20050;-73
2023/06/13 00:09:43;;;;;;;6.20;2.55;;;;;;;;;;5022410;28;20049;-72
2023/06/13 00:12:09;;;;;;;5.43;2.90;;;;;;;;;;5023700;28;20050;-73
2023/06/13 00:14:35;;;;;;;7.40;2.78;;;;;;;;;;5022926;28;20057;-72
2023/06/13 00:17:02;;;;;;;4.25;2.88;;;;;;;;;;5023114;28;20045;-73
2023/06/13 00:19:28;;;;;;;6.57;2.42;;;;;;;;;;4997475;28;20041;-73
2023/06/13 00:21:56;;;;;;;5.97;2.83;;;;;;;;;;5021894;28;20060;-72
2023/06/13 00:24:22;;;;;;;6.90;2.75;;;;;;;;;;5023840;28;20061;-73
2023/06/13 00:26:48;;;;;;;3.08;2.38;;;;;;;;;;5023925;28;20054;-72
2023/06/13 00:29:13;;;;;;;10.80;3.20;;;;;;;;;;5004751;28;20056;-73
2023/06/13 00:31:38;;;;;;;4.47;2.63;;;;;;;;;;5021087;28;20498;-73
2023/06/13 00:34:04;;;;;;;3.67;2.85;;;;;;;;;;5021641;28;20045;-72
2023/06/13 00:36:33;;;;;;;4.35;2.80;;;;;;;;;;5023727;28;20236;-72
2023/06/13 00:38:59;;;;;;;4.78;3.00;;;;;;;;;;5022930;28;20970;-73
2023/06/13 00:41:25;;;;;;;4.13;3.03;;;;;;;;;;5036976;28;20037;-73
2023/06/13 00:43:51;;;;;;;8.88;3.22;;;;;;;;;;5005000;28;20434;-73
2023/06/13 00:46:25;;;;;;;4.80;3.17;;;;;;;;;;5021557;28;20092;-72
2023/06/13 00:48:51;;;;;;;7.88;3.03;;;;;;;;;;5020832;28;20136;-72
2023/06/13 00:51:20;;;;;;;6.55;3.10;;;;;;;;;;5021992;28;20045;-72
2023/06/13 00:53:48;;;;;;;8.88;2.90;;;;;;;;;;5019965;28;20044;-72
2023/06/13 00:56:13;;;;;;;12.32;3.15;;;;;;;;;;5030231;28;20058;-73
2023/06/13 00:58:39;;;;;;;6.20;3.15;;;;;;;;;;5021575;28;20042;-72
2023/06/13 01:01:04;;;;;;;5.32;3.13;;;;;;;;;;5022244;28;20140;-72
2023/06/13 01:03:33;;;;;;;6.75;2.80;;;;;;;;;;5020793;28;20045;-73
2023/06/13 01:05:58;;;;;;;4.07;2.88;;;;;;;;;;5004816;28;20049;-73
2023/06/13 01:08:26;;;;;;;10.70;2.88;;;;;;;;;;5038249;28;20060;-73
2023/06/13 01:11:04;;;;;;;4.15;2.83;;;;;;;;;;5028416;28;20052;-73
2023/06/13 01:14:03;;;;;;;5.22;2.80;;;;;;;;;;5019519;28;20080;-72
2023/06/13 01:16:39;;;;;;;3.47;2.80;;;;;;;;;;5020191;28;20053;-72
2023/06/13 01:19:28;;;;;;;5.30;2.67;;;;;;;;;;5002485;28;20561;-72
2023/06/13 01:21:56;;;;;;;5.30;2.83;;;;;;;;;;5027832;28;20518;-72
2023/06/13 01:25:04;;;;;;;4.05;2.90;;;;;;;;;;5001689;28;20053;-72
2023/06/13 01:27:30;;;;;;;7.38;2.83;;;;;;;;;;5016392;28;20561;-73
2023/06/13 01:29:56;;;;;;;3.85;2.65;;;;;;;;;;5018838;28;20462;-73
2023/06/13 01:32:23;;;;;;;6.15;2.35;;;;;;;;;;5036702;28;20434;-73
2023/06/13 01:34:49;;;;;;;8.20;3.40;;;;;;;;;;5018327;28;20045;-73
2023/06/13 01:37:17;;;;;;;6.00;2.78;;;;;;;;;;5021052;28;20059;-74
2023/06/13 01:39:43;;;;;;;9.50;2.70;;;;;;;;;;5036096;28;20136;-73
2023/06/13 01:42:09;;;;;;;5.38;2.80;;;;;;;;;;5003524;28;20140;-73
2023/06/13 01:44:36;;;;;;;3.55;2.67;;;;;;;;;;5020598;28;20041;-73
2023/06/13 01:47:12;;;;;;;5.53;2.60;;;;;;;;;;5021473;28;20053;-72
2023/06/13 01:49:59;;;;;;;5.10;2.60;;;;;;;;;;5019172;28;20049;-72
2023/06/13 01:52:30;;;;;;;4.55;2.67;;;;;;;;;;5001913;28;20563;-72
2023/06/13 01:55:09;;;;;;;4.38;2.58;;;;;;;;;;5010664;28;20498;-73
2023/06/13 01:57:43;;;;;;;8.65;2.90;;;;;;;;;;5020203;28;20640;-73
2023/06/13 02:00:15;;;;;;;4.53;2.58;;;;;;;;;;5019390;28;20120;-72
2023/06/13 02:02:41;;;;;;;3.20;2.55;;;;;;;;;;5020288;28;20063;-72
2023/06/13 02:05:08;;;;;;;3.30;2.60;;;;;;;;;;5019435;28;20053;-72
2023/06/13 02:07:36;;;;;;;4.65;2.53;;;;;;;;;;5002406;28;20041;-72
2023/06/13 02:10:05;;;;;;;4.97;3.00;;;;;;;;;;5019409;28;20041;-72
2023/06/13 02:12:31;;;;;;;6.63;2.67;;;;;;;;;;5019774;28;20064;-72
2023/06/13 02:15:00;;;;;;;3.90;2.80;;;;;;;;;;5019967;28;20486;-72
2023/06/13 02:17:26;;;;;;;4.25;2.88;;;;;;;;;;5020095;28;20045;-73
2023/06/13 02:19:52;;;;;;;6.35;2.50;;;;;;;;;;5019203;28;20099;-73
2023/06/13 02:22:18;;;;;;;4.60;2.80;;;;;;;;;;5035660;28;20467;-72
2023/06/13 02:24:44;;;;;;;3.60;2.80;;;;;;;;;;5019575;28;20056;-72
2023/06/13 02:27:10;;;;;;;5.82;2.85;;;;;;;;;;5025902;28;20068;-72
2023/06/13 02:29:38;;;;;;;4.22;3.22;;;;;;;;;;5017871;28;20426;-72
2023/06/13 02:32:05;;;;;;;3.25;2.50;;;;;;;;;;5020258;28;20053;-72
2023/06/13 02:34:30;;;;;;;5.18;2.70;;;;;;;;;;5018870;28;20045;-72
2023/06/13 02:36:57;;;;;;;7.40;2.88;;;;;;;;;;5018464;28;20498;-73
2023/06/13 02:39:23;;;;;;;5.03;2.60;;;;;;;;;;5020203;28;20041;-73
2023/06/13 02:41:48;;;;;;;2.92;2.60;;;;;;;;;;5019279;28;20045;-72
2023/06/13 02:44:13;;;;;;;5.60;2.53;;;;;;;;;;5020203;28;20114;-72
2023/06/13 02:46:39;;;;;;;7.90;3.08;;;;;;;;;;5018616;28;20080;-72
2023/06/13 02:49:05;;;;;;;4.90;2.70;;;;;;;;;;5026597;28;20041;-73
2023/06/13 02:51:30;;;;;;;6.63;2.47;;;;;;;;;;5018435;28;20445;-72
2023/06/13 02:53:56;;;;;;;6.53;2.72;;;;;;;;;;5002343;28;20057;-72
2023/06/13 02:56:22;;;;;;;9.38;2.75;;;;;;;;;;5000407;28;20053;-73
2023/06/13 02:58:47;;;;;;;3.55;2.88;;;;;;;;;;5034547;28;20042;-72
2023/06/13 03:01:14;;;;;;;5.60;2.80;;;;;;;;;;5002042;28;20046;-72
2023/06/13 03:03:40;;;;;;;3.00;2.40;;;;;;;;;;5034661;28;20060;-72
2023/06/13 03:06:07;;;;;;;6.38;2.70;;;;;;;;;;5018560;28;20053;-72
2023/06/13 03:08:38;;;;;;;3.63;2.78;;;;;;;;;;5030197;28;20045;-72
2023/06/13 03:11:04;;;;;;;4.57;2.95;;;;;;;;;;5018170;28;20041;-73
2023/06/13 03:13:31;;;;;;;4.57;2.70;;;;;;;;;;5018244;28;20127;-73
2023/06/13 03:15:57;;;;;;;4.32;2.83;;;;;;;;;;5018206;28;20502;-73
2023/06/13 03:18:25;;;;;;;7.55;2.58;;;;;;;;;;5034822;28;20736;-72
2023/06/13 03:20:52;;;;;;;3.33;2.80;;;;;;;;;;5017565;28;20049;-73
2023/06/13 03:23:20;;;;;;;8.75;2.72;;;;;;;;;;5020581;28;20046;-72
2023/06/13 03:25:46;;;;;;;3.20;2.28;;;;;;;;;;5019365;28;20071;-72
2023/06/13 03:28:12;;;;;;;3.55;2.85;;;;;;;;;;5018231;28;20406;-73
2023/06/13 03:30:38;;;;;;;9.48;2.85;;;;;;;;;;5001507;28;20045;-72
2023/06/13 03:33:05;;;;;;;3.95;2.90;;;;;;;;;;5017929;28;20839;-73
2023/06/13 03:35:34;;;;;;;8.77;3.10;;;;;;;;;;5016160;28;20073;-71
2023/06/13 03:38:01;;;;;;;4.10;2.85;;;;;;;;;;5034789;28;20056;-72
2023/06/13 03:40:29;;;;;;;6.45;3.22;;;;;;;;;;5002158;28;20525;-72
2023/06/13 03:42:55;;;;;;;4.50;2.80;;;;;;;;;;5028554;28;20045;-73
2023/06/13 03:45:24;;;;;;;3.38;2.50;;;;;;;;;;5031851;28;20053;-72
2023/06/13 03:47:50;;;;;;;6.43;2.70;;;;;;;;;;5017075;28;20056;-72
2023/06/13 03:50:15;;;;;;;5.47;2.97;;;;;;;;;;5021480;28;20057;-72
2023/06/13 03:52:41;;;;;;;4.18;2.60;;;;;;;;;;5017754;28;20053;-72
2023/06/13 03:55:06;;;;;;;3.55;2.70;;;;;;;;;;5034584;28;20095;-72
2023/06/13 03:57:32;;;;;;;8.70;2.70;;;;;;;;;;5019038;28;20099;-72
2023/06/13 03:59:58;;;;;;;4.60;3.15;;;;;;;;;;5033398;28;20462;-72
2023/06/13 04:02:25;;;;;;;5.82;2.85;;;;;;;;;;5018096;28;20056;-73
2023/06/13 04:04:52;;;;;;;4.13;2.85;;;;;;;;;;5024368;28;20045;-73
2023/06/13 04:07:21;;;;;;;4.47;3.00;;;;;;;;;;5018825;28;20075;-73
2023/06/13 04:09:47;;;;;;;4.22;2.60;;;;;;;;;;5019596;28;20041;-73
2023/06/13 04:12:13;;;;;;;3.63;2.47;;;;;;;;;;5002811;28;20049;-73
2023/06/13 04:14:39;;;;;;;4.05;2.63;;;;;;;;;;5025201;28;20045;-73
2023/06/13 04:17:06;;;;;;;3.83;2.63;;;;;;;;;;5016498;28;20485;-73
2023/06/13 04:19:33;;;;;;;4.90;2.63;;;;;;;;;;5022188;28;20049;-74
2023/06/13 04:21:59;;;;;;;3.25;2.78;;;;;;;;;;5020736;28;20100;-73
2023/06/13 04:24:25;;;;;;;3.38;2.40;;;;;;;;;;5021118;28;20045;-73
2023/06/13 04:26:51;;;;;;;8.40;2.60;;;;;;;;;;5020045;28;20405;-74
2023/06/13 04:29:18;;;;;;;5.97;2.70;;;;;;;;;;5005789;28;20402;-74
2023/06/13 04:31:45;;;;;;;2.67;2.45;;;;;;;;;;5020960;28;20446;-74
2023/06/13 04:34:12;;;;;;;6.03;2.85;;;;;;;;;;5005591;28;20045;-73
2023/06/13 04:36:38;;;;;;;4.10;2.90;;;;;;;;;;5020393;28;20069;-73
2023/06/13 04:39:06;;;;;;;3.60;2.70;;;;;;;;;;5021201;28;20037;-73
2023/06/13 04:41:37;;;;;;;4.00;2.63;;;;;;;;;;5037681;28;20520;-73
2023/06/13 04:44:03;;;;;;;3.00;2.35;;;;;;;;;;5021784;28;20532;-73
2023/06/13 04:46:30;;;;;;;6.28;2.60;;;;;;;;;;5022646;28;20136;-73
2023/06/13 04:48:57;;;;;;;2.95;2.55;;;;;;;;;;5015848;28;20045;-73
2023/06/13 04:51:25;;;;;;;3.80;2.40;;;;;;;;;;5022933;28;20465;-73
2023/06/13 04:53:52;;;;;;;3.05;2.75;;;;;;;;;;5003483;28;20049;-73
2023/06/13 04:56:17;;;;;;;3.33;2.55;;;;;;;;;;5012380;28;20048;-73
2023/06/13 04:58:43;;;;;;;3.85;2.85;;;;;;;;;;5021447;28;20037;-73
2023/06/13 05:01:10;;;;;;;8.27;2.78;;;;;;;;;;5022048;28;20084;-74
2023/06/13 05:03:37;;;;;;;5.45;2.40;;;;;;;;;;5020901;28;20046;-73
2023/06/13 05:06:03;;;;;;;4.50;2.58;;;;;;;;;;5020129;28;20513;-74
2023/06/13 05:08:30;;;;;;;2.67;2.28;;;;;;;;;;5017123;28;20103;-73
2023/06/13 05:10:57;;;;;;;3.38;2.47;;;;;;;;;;5019085;28;21183;-73
2023/06/13 05:13:23;;;;;;;4.00;2.63;;;;;;;;;;5020659;28;20053;-73
2023/06/13 05:15:48;;;;;;;15.63;3.58;;;;;;;;;;5016583;28;20103;-74
2023/06/13 05:18:14;;;;;;;4.10;2.50;;;;;;;;;;5012777;28;20128;-73
2023/06/13 05:20:43;;;;;;;3.55;2.50;;;;;;;;;;5035224;28;20053;-74
2023/06/13 05:23:10;;;;;;;3.92;1.95;;;;;;;;;;5018104;28;20037;-73
2023/06/13 05:25:36;;;;;;;4.70;2.75;;;;;;;;;;5018358;28;20045;-73
2023/06/13 05:28:03;;;;;;;4.20;2.38;;;;;;;;;;5019956;28;20045;-73
2023/06/13 05:30:28;;;;;;;5.75;2.63;;;;;;;;;;5018140;28;20449;-73
2023/06/13 05:32:54;;;;;;;4.38;2.72;;;;;;;;;;5001562;28;20417;-74
2023/06/13 05:35:19;;;;;;;3.47;2.30;;;;;;;;;;5018502;28;20087;-73
2023/06/13 05:37:46;;;;;;;4.43;2.63;;;;;;;;;;5019130;28;20410;-73
2023/06/13 05:40:12;;;;;;;7.82;2.70;;;;;;;;;;5020699;28;20103;-73
2023/06/13 05:42:38;;;;;;;5.68;2.53;;;;;;;;;;5018335;28;20083;-73
2023/06/13 05:45:05;;;;;;;2.78;2.42;;;;;;;;;;5002793;28;20152;-73
2023/06/13 05:47:31;;;;;;;6.82;2.95;;;;;;;;;;5020465;28;20464;-74
2023/06/13 05:49:57;;;;;;;3.78;2.20;;;;;;;;;;5002718;28;20049;-73
2023/06/13 05:52:23;;;;;;;3.13;2.22;;;;;;;;;;5019214;28;20059;-74
2023/06/13 05:54:48;;;;;;;3.38;2.47;;;;;;;;;;5001718;28;20063;-75
2023/06/13 05:57:15;;;;;;;8.45;2.70;;;;;;;;;;5023899;28;20045;-74
2023/06/13 05:59:40;;;;;;;4.65;2.10;;;;;;;;;;5030612;28;20045;-75
2023/06/13 06:02:09;;;;;;;9.68;2.45;;;;;;;;;;5018835;28;20050;-73
2023/06/13 06:04:35;;;;;;;4.78;2.50;;;;;;;;;;5019714;28;20129;-75
2023/06/13 06:07:01;;;;;;;4.72;2.30;;;;;;;;;;5021095;28;20148;-74
2023/06/13 06:09:26;;;;;;;4.38;2.50;;;;;;;;;;5018754;28;20051;-75
2023/06/13 06:11:52;;;;;;;7.65;2.50;;;;;;;;;;5019846;28;20048;-74
2023/06/13 06:14:18;;;;;;;3.92;2.42;;;;;;;;;;5023871;28;20168;-75
2023/06/13 06:16:43;;;;;;;9.68;2.85;;;;;;;;;;5020593;28;20183;-74
2023/06/13 06:19:09;;;;;;;3.35;2.40;;;;;;;;;;5020950;28;20048;-74
2023/06/13 06:21:34;;;;;;;3.15;2.40;;;;;;;;;;5019002;28;20041;-74
2023/06/13 06:24:00;;;;;;;8.35;2.55;;;;;;;;;;5024872;28;20049;-74
2023/06/13 06:26:26;;;;;;;9.77;2.75;;;;;;;;;;5013049;28;20045;-75
2023/06/13 06:28:52;;;;;;;7.70;2.40;;;;;;;;;;5002354;28;20106;-74
2023/06/13 06:31:18;;;;;;;6.88;2.03;;;;;;;;;;5020962;28;20565;-72
2023/06/13 06:33:44;;;;;;;7.55;2.25;;;;;;;;;;5025350;28;20128;-74
2023/06/13 06:36:09;;;;;;;7.57;2.50;;;;;;;;;;5020301;28;20045;-73
2023/06/13 06:38:35;;;;;;;4.40;2.28;;;;;;;;;;5018509;28;20037;-72
2023/06/13 06:41:01;;;;;;;4.63;2.20;;;;;;;;;;5019251;28;20407;-76
2023/06/13 06:43:26;;;;;;;3.75;2.15;;;;;;;;;;5017848;28;20053;-75
2023/06/13 06:45:53;;;;;;;18.02;2.95;;;;;;;;;;5001651;28;20445;-73
2023/06/13 06:48:18;;;;;;;3.58;2.42;;;;;;;;;;5017893;28;20187;-73
2023/06/13 06:50:44;;;;;;;5.18;2.50;;;;;;;;;;5018978;28;20049;-73
2023/06/13 06:53:10;;;;;;;5.60;2.50;;;;;;;;;;5019361;28;20044;-73
2023/06/13 06:55:35;;;;;;;8.60;2.30;;;;;;;;;;5019807;28;20069;-71
2023/06/13 06:58:01;;;;;;;5.75;2.03;;;;;;;;;;5018967;28;20108;-72
2023/06/13 07:00:26;;;;;;;2.40;1.83;;;;;;;;;;5034163;28;20053;-72
2023/06/13 07:02:54;;;;;;;4.80;2.40;;;;;;;;;;5020120;28;20045;-72
2023/06/13 07:05:20;;;;;;;6.65;2.45;;;;;;;;;;5020610;28;20045;-72
2023/06/13 07:07:46;;;;;;;9.35;2.30;;;;;;;;;;5018937;28;20061;-74
2023/06/13 07:10:11;;;;;;;6.65;3.08;;;;;;;;;;5018856;28;20061;-73
2023/06/13 07:12:40;;;;;;;10.70;2.40;;;;;;;;;;5021418;28;20045;-72
2023/06/13 07:15:06;;;;;;;3.67;2.10;;;;;;;;;;5019985;28;20068;-72
2023/06/13 07:17:32;;;;;;;4.93;2.20;;;;;;;;;;5017757;28;20053;-72
2023/06/13 07:19:57;;;;;;;4.45;1.92;;;;;;;;;;5019352;28;20049;-75
2023/06/13 07:22:23;;;;;;;5.10;2.20;;;;;;;;;;5020262;28;20702;-73
2023/06/13 07:24:48;;;;;;;3.83;2.25;;;;;;;;;;5019896;28;21061;-73
2023/06/13 07:27:18;;;;;;;3.42;2.30;;;;;;;;;;5035887;28;20095;-72
2023/06/13 07:29:43;;;;;;;5.28;2.00;;;;;;;;;;5018939;28;20160;-73
2023/06/13 07:32:09;;;;;;;7.10;2.13;;;;;;;;;;5019515;28;20057;-73
2023/06/13 07:34:35;;;;;;;3.20;2.08;;;;;;;;;;5018125;28;20480;-73
2023/06/13 07:37:00;;;;;;;4.15;2.22;;;;;;;;;;5020169;28;20083;-72
2023/06/13 07:39:26;;;;;;;4.15;2.08;;;;;;;;;;5019793;28;20053;-73
2023/06/13 07:41:51;;;;;;;3.00;2.05;;;;;;;;;;5018656;28;20042;-73
2023/06/13 07:44:17;;;;;;;6.65;2.22;;;;;;;;;;5022094;28;20045;-72
2023/06/13 07:46:43;;;;;;;3.63;2.20;;;;;;;;;;5011061;28;20057;-73
2023/06/13 07:49:08;;;;;;;6.82;2.20;;;;;;;;;;5020032;28;20160;-72
2023/06/13 07:51:34;;;;;;;4.80;2.40;;;;;;;;;;5021646;28;20095;-73
2023/06/13 07:54:00;;;;;;;7.22;2.10;;;;;;;;;;5038778;28;20049;-72
2023/06/13 07:56:25;;;;;;;4.70;2.05;;;;;;;;;;5021560;28;20853;-73
2023/06/13 07:58:51;;;;;;;4.97;2.10;;;;;;;;;;5021603;28;20045;-73
2023/06/13 08:01:17;;;;;;;3.55;2.10;;;;;;;;;;5023268;28;20422;-75
2023/06/13 08:03:45;;;;;;;2.97;2.05;;;;;;;;;;5006017;28;20045;-73
2023/06/13 08:06:10;;;;;;;8.77;2.03;;;;;;;;;;5028755;28;20064;-73
2023/06/13 08:08:36;;;;;;;3.30;2.05;;;;;;;;;;5023767;28;20937;-72
2023/06/13 08:11:01;;;;;;;2.63;2.00;;;;;;;;;;5024015;28;20049;-75
2023/06/13 08:13:26;;;;;;;6.72;1.98;;;;;;;;;;5021125;28;20053;-74
2023/06/13 08:15:53;;;;;;;2.72;2.10;;;;;;;;;;5030951;28;20073;-73
2023/06/13 08:18:19;;;;;;;8.07;2.05;;;;;;;;;;5022733;28;20123;-74
2023/06/13 08:20:45;;;;;;;6.20;2.30;;;;;;;;;;5033084;28;20049;-74
2023/06/13 08:23:12;;;;;;;7.78;2.40;;;;;;;;;;5012282;28;20045;-74
2023/06/13 08:25:37;;;;;;;15.15;2.47;;;;;;;;;;5022937;28;20556;-73
2023/06/13 08:28:06;;;;;;;3.63;2.10;;;;;;;;;;5020081;28;20116;-74
2023/06/13 08:30:32;;;;;;;4.80;1.92;;;;;;;;;;5021878;28;20045;-74
2023/06/13 08:33:01;;;;;;;6.95;2.13;;;;;;;;;;5021091;28;20060;-75
2023/06/13 08:35:28;;;;;;;3.90;2.30;;;;;;;;;;5036980;28;20045;-73
2023/06/13 08:37:54;;;;;;;5.18;2.15;;;;;;;;;;5021485;28;20103;-73
2023/06/13 08:40:19;;;;;;;6.10;2.03;;;;;;;;;;5022305;28;20049;-72
2023/06/13 08:42:46;;;;;;;2.28;2.03;;;;;;;;;;5021833;28;20037;-73
2023/06/13 08:45:11;;;;;;;3.95;2.30;;;;;;;;;;5021687;28;20099;-73
2023/06/13 08:47:39;;;;;;;4.18;2.00;;;;;;;;;;5021383;28;20053;-73
2023/06/13 08:50:06;;;;;;;4.18;2.15;;;;;;;;;;5021531;28;20429;-71
2023/06/13 08:52:41;;;;;;;1.95;1.75;;;;;;;;;;5023636;28;20049;-72
2023/06/13 08:55:12;;;;;;;8.43;2.47;;;;;;;;;;5023612;28;20037;-72
2023/06/13 08:57:41;;;;;;;4.35;2.17;;;;;;;;;;5014421;28;20080;-73
2023/06/13 09:00:12;;;;;;;3.72;2.30;;;;;;;;;;5013060;28;20058;-73
2023/06/13 09:02:42;;;;;;;3.47;1.95;;;;;;;;;;5023022;28;20658;-72
2023/06/13 09:05:13;;;;;;;2.93;1.83;;;;;;;;;;5024416;28;20141;-74
2023/06/13 09:07:40;;;;;;;6.40;2.43;;;;;;;;;;5024734;28;20049;-74
2023/06/13 09:10:07;;;;;;;10.05;3.03;;;;;;;;;;5023235;28;20498;-73
2023/06/13 09:12:33;;;;;;;3.08;2.00;;;;;;;;;;5019559;28;20141;-73
2023/06/13 09:14:59;;;;;;;5.40;2.08;;;;;;;;;;5020900;28;20033;-74
2023/06/13 09:17:25;;;;;;;4.75;2.22;;;;;;;;;;5021642;28;20110;-72
2023/06/13 09:19:51;;;;;;;3.40;2.28;;;;;;;;;;5019487;28;20095;-73
2023/06/13 09:22:17;;;;;;;4.70;2.33;;;;;;;;;;5020473;28;20437;-73
2023/06/13 09:24:44;;;;;;;4.47;2.17;;;;;;;;;;5036348;28;20053;-74
2023/06/13 09:27:09;;;;;;;4.78;2.05;;;;;;;;;;5020048;28;20049;-74
2023/06/13 09:29:35;;;;;;;3.35;2.28;;;;;;;;;;5026824;28;20048;-70
2023/06/13 09:32:02;;;;;;;9.35;2.22;;;;;;;;;;5021895;28;20510;-71
2023/06/13 09:34:31;;;;;;;4.00;1.98;;;;;;;;;;5035735;28;20092;-71
2023/06/13 09:36:58;;;;;;;7.78;2.70;;;;;;;;;;5020904;28;20041;-71
2023/06/13 09:39:28;;;;;;;7.13;2.30;;;;;;;;;;5020575;28;20100;-72
2023/06/13 09:41:55;;;;;;;5.85;2.03;;;;;;;;;;5020467;28;20045;-73
2023/06/13 09:44:23;;;;;;;6.40;2.05;;;;;;;;;;5019590;28;20108;-72
2023/06/13 09:46:53;;;;;;;6.05;2.05;;;;;;;;;;5021091;28;20053;-72
2023/06/13 09:49:19;;;;;;;2.47;2.25;;;;;;;;;;5021024;28;20047;-72
2023/06/13 09:51:45;;;;;;;6.22;2.10;;;;;;;;;;5019849;28;20107;-72
2023/06/13 09:54:11;;;;;;;3.15;2.03;;;;;;;;;;5019172;28;20042;-73
2023/06/13 09:56:40;;;;;;;5.63;2.25;;;;;;;;;;5019465;28;20053;-73
2023/06/13 09:59:06;;;;;;;2.72;2.53;;;;;;;;;;5018958;28;20053;-71
2023/06/13 10:01:34;;;;;;;3.97;2.17;;;;;;;;;;5019727;28;20049;-71
2023/06/13 10:04:01;;;;;;;3.45;2.10;;;;;;;;;;5020971;28;20061;-73
2023/06/13 10:06:27;;;;;;;4.03;2.30;;;;;;;;;;5017504;28;20049;-72
2023/06/13 10:08:52;;;;;;;5.65;1.90;;;;;;;;;;5020125;28;20056;-73
2023/06/13 10:11:23;;;;;;;6.93;2.10;;;;;;;;;;5019311;28;21033;-74
2023/06/13 10:14:15;;;;;;;6.47;2.08;;;;;;;;;;5019462;28;20072;-72
2023/06/13 10:16:59;;;;;;;9.38;2.42;;;;;;;;;;5019119;28;20407;-72
2023/06/13 10:19:25;;;;;;;2.22;1.73;;;;;;;;;;5019187;28;20045;-71
2023/06/13 10:21:52;;;;;;;2.40;1.80;;;;;;;;;;5019291;28;20049;-73
2023/06/13 10:24:19;;;;;;;3.20;1.83;;;;;;;;;;5020502;28;20204;-73
2023/06/13 10:26:46;;;;;;;3.08;2.20;;;;;;;;;;5020284;28;20056;-72
2023/06/13 10:29:30;;;;;;;3.95;2.10;;;;;;;;;;5019387;28;20054;-72
2023/06/13 10:32:36;;;;;;;5.57;1.90;;;;;;;;;;5019228;28;20490;-72
2023/06/13 10:35:24;;;;;;;3.72;2.13;;;;;;;;;;5020308;28;20045;-73
2023/06/13 10:38:05;;;;;;;5.75;2.40;;;;;;;;;;5007337;28;20045;-71
2023/06/13 10:40:52;;;;;;;2.60;2.05;;;;;;;;;;5019579;28;20137;-72
2023/06/13 10:43:29;;;;;;;1.85;1.75;;;;;;;;;;5019945;28;20092;-72
2023/06/13 10:45:58;;;;;;;6.95;1.83;;;;;;;;;;5019113;28;20061;-73
2023/06/13 10:48:36;;;;;;;4.22;2.20;;;;;;;;;;5019338;28;20115;-73
2023/06/13 10:51:02;;;;;;;2.45;1.67;;;;;;;;;;5018427;28;20228;-71
2023/06/13 10:53:31;;;;;;;3.85;1.95;;;;;;;;;;5018748;28;20056;-73
2023/06/13 10:55:59;;;;;;;3.15;2.10;;;;;;;;;;5019228;28;20050;-72
2023/06/13 10:58:25;;;;;;;4.28;2.17;;;;;;;;;;5018121;28;20655;-72
2023/06/13 11:00:50;;;;;;;5.32;2.15;;;;;;;;;;5011402;28;20042;-72
2023/06/13 11:03:16;;;;;;;3.97;2.00;;;;;;;;;;5019847;28;20490;-72
2023/06/13 11:05:45;;;;;;;2.45;1.98;;;;;;;;;;5018868;28;20541;-71
2023/06/13 11:08:18;;;;;;;4.72;2.10;;;;;;;;;;5020796;28;20103;-73
2023/06/13 11:10:46;;;;;;;3.92;2.08;;;;;;;;;;5019782;28;20041;-72
2023/06/13 11:13:23;;;;;;;2.25;1.90;;;;;;;;;;5018955;28;20069;-72
2023/06/13 11:15:52;;;;;;;4.22;2.60;;;;;;;;;;5020188;28;20068;-72
2023/06/13 11:18:21;;;;;;;2.53;2.25;;;;;;;;;;5019364;28;20045;-71
2023/06/13 11:20:51;;;;;;;6.32;2.00;;;;;;;;;;5019339;28;20041;-71
2023/06/13 11:23:38;;;;;;;10.73;1.90;;;;;;;;;;5021850;28;20064;-72
2023/06/13 11:26:04;;;;;;;5.88;1.70;;;;;;;;;;5003289;28;20085;-72
2023/06/13 11:28:31;;;;;;;4.68;2.35;;;;;;;;;;5023217;28;20055;-72
2023/06/13 11:31:02;;;;;;;5.40;1.88;;;;;;;;;;5022209;28;20053;-71
2023/06/13 11:33:30;;;;;;;4.75;1.77;;;;;;;;;;5005221;28;20138;-70
2023/06/13 11:35:58;;;;;;;3.33;2.00;;;;;;;;;;5019586;28;20064;-71
2023/06/13 11:38:54;;;;;;;9.55;2.38;;;;;;;;;;5027830;28;20056;-74
2023/06/13 11:41:19;;;;;;;3.40;2.08;;;;;;;;;;5023501;28;20049;-73
2023/06/13 11:43:45;;;;;;;3.58;1.92;;;;;;;;;;5037413;28;20041;-73
2023/06/13 11:46:12;;;;;;;4.50;2.00;;;;;;;;;;5022321;28;20061;-71
2023/06/13 11:48:37;;;;;;;3.33;2.30;;;;;;;;;;5022498;28;20068;-72
2023/06/13 11:51:11;;;;;;;3.80;1.98;;;;;;;;;;5022692;28;20431;-72
2023/06/13 11:53:53;;;;;;;3.60;1.92;;;;;;;;;;5020670;28;20045;-73
2023/06/13 11:56:21;;;;;;;5.40;2.42;;;;;;;;;;5020234;28;20041;-73
2023/06/13 11:58:47;;;;;;;5.00;2.15;;;;;;;;;;5021993;28;20457;-74
2023/06/13 12:01:13;;;;;;;5.68;2.08;;;;;;;;;;5022499;28;20057;-73
2023/06/13 12:03:40;;;;;;;4.43;2.20;;;;;;;;;;5021822;28;20041;-73
2023/06/13 12:06:07;;;;;;;4.63;2.15;;;;;;;;;;5021222;28;20160;-74
2023/06/13 12:08:38;;;;;;;3.45;2.08;;;;;;;;;;5020216;28;20053;-73
2023/06/13 12:11:07;;;;;;;3.13;1.80;;;;;;;;;;5022703;28;20047;-73
2023/06/13 12:13:33;;;;;;;2.20;1.92;;;;;;;;;;5014965;28;20080;-73
2023/06/13 12:15:59;;;;;;;4.50;2.28;;;;;;;;;;5021677;28;20049;-74
2023/06/13 12:18:28;;;;;;;1.90;1.73;;;;;;;;;;5020387;28;20110;-72
2023/06/13 12:20:53;;;;;;;3.20;2.20;;;;;;;;;;5023454;28;20430;-73
2023/06/13 12:23:20;;;;;;;3.67;1.90;;;;;;;;;;5024076;28;20520;-71
2023/06/13 12:25:46;;;;;;;3.83;2.00;;;;;;;;;;5021160;28;20041;-73
2023/06/13 12:28:17;;;;;;;6.63;1.90;;;;;;;;;;5011752;28;20533;-72
2023/06/13 12:30:43;;;;;;;6.00;2.00;;;;;;;;;;5022044;28;20041;-71
2023/06/13 12:33:18;;;;;;;3.38;2.22;;;;;;;;;;5022390;28;20051;-72
2023/06/13 12:35:57;;;;;;;3.95;1.88;;;;;;;;;;5003844;28;20088;-71
2023/06/13 12:38:28;;;;;;;6.47;2.08;;;;;;;;;;5023708;28;20585;-72
2023/06/13 12:40:54;;;;;;;3.90;2.13;;;;;;;;;;5019928;28;20080;-73
2023/06/13 12:43:27;;;;;;;2.17;1.98;;;;;;;;;;5024046;28;20049;-72
2023/06/13 12:45:58;;;;;;;2.30;2.00;;;;;;;;;;5022080;28;20053;-72
2023/06/13 12:48:24;;;;;;;3.65;1.98;;;;;;;;;;5021926;28;20110;-73
2023/06/13 12:50:50;;;;;;;1.60;1.50;;;;;;;;;;5021948;28;20429;-74
2023/06/13 12:53:20;;;;;;;4.88;2.17;;;;;;;;;;5020929;28;20049;-72
2023/06/13 12:55:51;;;;;;;4.07;2.00;;;;;;;;;;5018535;28;20088;-73
2023/06/13 12:58:36;;;;;;;4.80;2.20;;;;;;;;;;5020170;28;20041;-74
2023/06/13 13:01:06;;;;;;;2.15;1.90;;;;;;;;;;5022466;28;20053;-74
2023/06/13 13:03:32;;;;;;;6.15;2.03;;;;;;;;;;5020158;28;20095;-73
2023/06/13 13:05:59;;;;;;;2.85;2.03;;;;;;;;;;5021604;28;20123;-74
2023/06/13 13:08:25;;;;;;;4.55;1.85;;;;;;;;;;5021303;28;20079;-73
2023/06/13 13:10:51;;;;;;;3.50;1.92;;;;;;;;;;5003830;28;20052;-74
2023/06/13 13:13:17;;;;;;;3.55;2.20;;;;;;;;;;5020752;28;20084;-74
2023/06/13 13:15:43;;;;;;;6.65;1.98;;;;;;;;;;5034937;28;20077;-73
2023/06/13 13:18:09;;;;;;;4.07;1.92;;;;;;;;;;5020221;28;20127;-74
2023/06/13 13:20:35;;;;;;;5.78;2.30;;;;;;;;;;5022249;28;20037;-74
2023/06/13 13:23:01;;;;;;;3.75;1.90;;;;;;;;;;5036476;28;20502;-74
2023/06/13 13:25:26;;;;;;;3.67;1.80;;;;;;;;;;5020672;28;20095;-73
2023/06/13 13:27:53;;;;;;;3.40;2.50;;;;;;;;;;5019781;28;20045;-73
2023/06/13 13:30:19;;;;;;;6.05;2.15;;;;;;;;;;5019800;28;20087;-72
2023/06/13 13:32:46;;;;;;;3.58;1.60;;;;;;;;;;5021380;28;20045;-72
2023/06/13 13:35:12;;;;;;;3.13;2.17;;;;;;;;;;5022157;28;20053;-72
2023/06/13 13:37:38;;;;;;;2.03;1.83;;;;;;;;;;5022118;28;20049;-72
2023/06/13 13:40:04;;;;;;;2.40;2.00;;;;;;;;;;5019851;28;20542;-72
2023/06/13 13:42:36;;;;;;;9.57;1.83;;;;;;;;;;5019613;28;20061;-72
2023/06/13 13:45:03;;;;;;;5.43;1.83;;;;;;;;;;5019107;28;20110;-72
2023/06/13 13:47:28;;;;;;;5.85;2.03;;;;;;;;;;5016410;28;20049;-75
2023/06/13 13:49:57;;;;;;;4.45;2.00;;;;;;;;;;5017031;28;20041;-74
2023/06/13 13:52:25;;;;;;;5.20;2.10;;;;;;;;;;5014510;28;20052;-73
2023/06/13 13:54:51;;;;;;;4.65;2.10;;;;;;;;;;5018897;28;20132;-73
2023/06/13 13:57:18;;;;;;;4.20;1.88;;;;;;;;;;5018049;28;20065;-73
2023/06/13 13:59:44;;;;;;;3.75;2.00;;;;;;;;;;5019041;28;20049;-73
2023/06/13 14:02:10;;;;;;;4.15;1.70;;;;;;;;;;5020433;28;20450;-73
2023/06/13 14:04:36;;;;;;;5.40;2.00;;;;;;;;;;5020853;28;20041;-72
2023/06/13 14:07:02;;;;;;;5.07;2.00;;;;;;;;;;5021834;28;20422;-73
2023/06/13 14:09:27;;;;;;;7.90;2.38;;;;;;;;;;5019684;28;20045;-72
2023/06/13 14:11:53;;;;;;;4.82;2.10;;;;;;;;;;5021296;28;20880;-73
2023/06/13 14:14:18;;;;;;;4.80;2.00;;;;;;;;;;5021998;28;20571;-73
2023/06/13 14:16:44;;;;;;;3.15;1.90;;;;;;;;;;5025426;28;20084;-73
2023/06/13 14:19:10;;;;;;;2.20;2.00;;;;;;;;;;5019336;28;20412;-73
2023/06/13 14:21:35;;;;;;;2.38;1.90;;;;;;;;;;5018841;28;20077;-73
2023/06/13 14:24:01;;;;;;;3.15;2.78;;;;;;;;;;5027041;28;20081;-73
2023/06/13 14:26:27;;;;;;;2.10;1.90;;;;;;;;;;5020521;28;20053;-73
2023/06/13 14:28:53;;;;;;;6.57;1.65;;;;;;;;;;5019645;28;20528;-74
2023/06/13 14:31:19;;;;;;;3.67;2.00;;;;;;;;;;5016685;28;20045;-73
2023/06/13 14:33:45;;;;;;;1.83;1.73;;;;;;;;;;5017797;28;20459;-73
2023/06/13 14:36:11;;;;;;;4.13;1.70;;;;;;;;;;5018211;28;20184;-73
2023/06/13 14:38:41;;;;;;;6.38;1.90;;;;;;;;;;5018153;28;20049;-74
2023/06/13 14:41:08;;;;;;;3.30;2.25;;;;;;;;;;5018816;28;20235;-73
2023/06/13 14:43:34;;;;;;;4.13;2.20;;;;;;;;;;5016924;28;20053;-73
2023/06/13 14:46:01;;;;;;;5.13;2.00;;;;;;;;;;5018129;28;20053;-73